sensor_id;sensor_type;location;lat;lon;timestamp;P1;durP1;ratioP1;P2;durP2;ratioP2
70953;SDS011;58618;47.490;8.736;2023-04-09T00:00:02;12.88;;;6.40;;
70953;SDS011;58618;47.490;8.736;2023-04-09T00:02:50;10.07;;;5.77;;
70953;SDS011;58618;47.490;8.736;2023-04-09T00:05:38;10.27;;;5.88;;
70953;SDS011;58618;47.490;8.736;2023-04-09T00:08:26;12.20;;;6.00;;
70953;SDS011;58618;47.490;8.736;2023-04-09T00:11:14;10.57;;;5.35;;
70953;SDS011;58618;47.490;8.736;2023-04-09T00:14:02;12.70;;;6.13;;
70953;SDS011;58618;47.490;8.736;2023-04-09T00:16:49;12.27;;;6.63;;
70953;SDS011;58618;47.490;8.736;2023-04-09T00:19:36;12.32;;;6.25;;
70953;SDS011;58618;47.490;8.736;2023-04-09T00:22:24;9.98;;;5.70;;
70953;SDS011;58618;47.490;8.736;2023-04-09T00:25:11;10.35;;;6.00;;
70953;SDS011;58618;47.490;8.736;2023-04-09T00:28:00;11.25;;;6.20;;
70953;SDS011;58618;47.490;8.736;2023-04-09T00:30:47;10.27;;;5.33;;
70953;SDS011;58618;47.490;8.736;2023-04-09T00:33:35;9.75;;;5.95;;
70953;SDS011;58618;47.490;8.736;2023-04-09T00:36:22;13.80;;;6.63;;
70953;SDS011;58618;47.490;8.736;2023-04-09T00:39:09;12.60;;;6.95;;
70953;SDS011;58618;47.490;8.736;2023-04-09T00:41:57;13.48;;;7.45;;
70953;SDS011;58618;47.490;8.736;2023-04-09T00:44:46;9.67;;;5.83;;
70953;SDS011;58618;47.490;8.736;2023-04-09T00:47:33;12.55;;;6.13;;
70953;SDS011;58618;47.490;8.736;2023-04-09T00:50:21;11.60;;;6.55;;
70953;SDS011;58618;47.490;8.736;2023-04-09T00:53:08;10.15;;;5.50;;
70953;SDS011;58618;47.490;8.736;2023-04-09T00:55:57;10.50;;;5.70;;
70953;SDS011;58618;47.490;8.736;2023-04-09T00:58:45;13.20;;;7.40;;
70953;SDS011;58618;47.490;8.736;2023-04-09T01:01:34;13.45;;;7.50;;
70953;SDS011;58618;47.490;8.736;2023-04-09T01:04:21;10.02;;;6.45;;
70953;SDS011;58618;47.490;8.736;2023-04-09T01:07:10;12.02;;;6.63;;
70953;SDS011;58618;47.490;8.736;2023-04-09T01:10:04;12.48;;;6.80;;
70953;SDS011;58618;47.490;8.736;2023-04-09T01:13:05;13.27;;;6.87;;
70953;SDS011;58618;47.490;8.736;2023-04-09T01:15:55;11.27;;;6.55;;
70953;SDS011;58618;47.490;8.736;2023-04-09T01:18:48;14.43;;;7.38;;
70953;SDS011;58618;47.490;8.736;2023-04-09T01:21:38;13.63;;;7.25;;
70953;SDS011;58618;47.490;8.736;2023-04-09T01:24:30;11.27;;;6.25;;
70953;SDS011;58618;47.490;8.736;2023-04-09T01:27:27;11.63;;;6.53;;
70953;SDS011;58618;47.490;8.736;2023-04-09T01:30:26;12.40;;;6.90;;
70953;SDS011;58618;47.490;8.736;2023-04-09T01:33:15;12.15;;;6.60;;
70953;SDS011;58618;47.490;8.736;2023-04-09T01:36:04;13.32;;;6.32;;
70953;SDS011;58618;47.490;8.736;2023-04-09T01:38:52;9.82;;;6.25;;
70953;SDS011;58618;47.490;8.736;2023-04-09T01:41:41;12.13;;;6.53;;
70953;SDS011;58618;47.490;8.736;2023-04-09T01:44:29;12.32;;;6.70;;
70953;SDS011;58618;47.490;8.736;2023-04-09T01:47:20;13.98;;;7.40;;
70953;SDS011;58618;47.490;8.736;2023-04-09T01:50:08;13.65;;;6.35;;
70953;SDS011;58618;47.490;8.736;2023-04-09T01:52:56;11.98;;;6.05;;
70953;SDS011;58618;47.490;8.736;2023-04-09T01:55:43;14.50;;;6.93;;
70953;SDS011;58618;47.490;8.736;2023-04-09T01:58:31;12.43;;;6.63;;
70953;SDS011;58618;47.490;8.736;2023-04-09T02:01:21;12.10;;;6.97;;
70953;SDS011;58618;47.490;8.736;2023-04-09T02:04:19;13.57;;;7.88;;
70953;SDS011;58618;47.490;8.736;2023-04-09T02:07:11;12.75;;;7.47;;
70953;SDS011;58618;47.490;8.736;2023-04-09T02:10:03;12.87;;;6.70;;
70953;SDS011;58618;47.490;8.736;2023-04-09T02:12:52;14.00;;;7.57;;
70953;SDS011;58618;47.490;8.736;2023-04-09T02:15:41;14.27;;;6.57;;
70953;SDS011;58618;47.490;8.736;2023-04-09T02:18:29;12.30;;;6.75;;
70953;SDS011;58618;47.490;8.736;2023-04-09T02:21:18;12.57;;;7.22;;
70953;SDS011;58618;47.490;8.736;2023-04-09T02:24:06;12.57;;;6.87;;
70953;SDS011;58618;47.490;8.736;2023-04-09T02:26:53;12.75;;;7.05;;
70953;SDS011;58618;47.490;8.736;2023-04-09T02:29:41;12.88;;;7.07;;
70953;SDS011;58618;47.490;8.736;2023-04-09T02:32:29;13.70;;;7.03;;
70953;SDS011;58618;47.490;8.736;2023-04-09T02:35:16;10.60;;;6.13;;
70953;SDS011;58618;47.490;8.736;2023-04-09T02:38:05;11.83;;;6.33;;
70953;SDS011;58618;47.490;8.736;2023-04-09T02:40:53;10.73;;;6.35;;
70953;SDS011;58618;47.490;8.736;2023-04-09T02:43:40;12.50;;;7.63;;
70953;SDS011;58618;47.490;8.736;2023-04-09T02:46:27;12.23;;;6.38;;
70953;SDS011;58618;47.490;8.736;2023-04-09T02:49:14;10.18;;;5.85;;
70953;SDS011;58618;47.490;8.736;2023-04-09T02:52:02;13.27;;;6.33;;
70953;SDS011;58618;47.490;8.736;2023-04-09T02:54:51;10.82;;;6.18;;
70953;SDS011;58618;47.490;8.736;2023-04-09T02:57:38;10.38;;;5.28;;
70953;SDS011;58618;47.490;8.736;2023-04-09T03:00:25;11.38;;;6.65;;
70953;SDS011;58618;47.490;8.736;2023-04-09T03:03:13;13.02;;;6.95;;
70953;SDS011;58618;47.490;8.736;2023-04-09T03:06:00;10.03;;;5.60;;
70953;SDS011;58618;47.490;8.736;2023-04-09T03:08:47;15.95;;;6.55;;
70953;SDS011;58618;47.490;8.736;2023-04-09T03:11:36;10.38;;;5.90;;
70953;SDS011;58618;47.490;8.736;2023-04-09T03:14:23;11.40;;;6.70;;
70953;SDS011;58618;47.490;8.736;2023-04-09T03:17:11;12.73;;;6.65;;
70953;SDS011;58618;47.490;8.736;2023-04-09T03:19:58;11.93;;;6.60;;
70953;SDS011;58618;47.490;8.736;2023-04-09T03:22:46;13.00;;;7.55;;
70953;SDS011;58618;47.490;8.736;2023-04-09T03:25:33;12.15;;;5.85;;
70953;SDS011;58618;47.490;8.736;2023-04-09T03:28:21;11.20;;;6.38;;
70953;SDS011;58618;47.490;8.736;2023-04-09T03:31:09;11.70;;;7.00;;
70953;SDS011;58618;47.490;8.736;2023-04-09T03:33:56;11.87;;;6.83;;
70953;SDS011;58618;47.490;8.736;2023-04-09T03:36:43;10.50;;;5.57;;
70953;SDS011;58618;47.490;8.736;2023-04-09T03:39:31;14.52;;;7.43;;
70953;SDS011;58618;47.490;8.736;2023-04-09T03:42:18;12.23;;;7.45;;
70953;SDS011;58618;47.490;8.736;2023-04-09T03:45:07;14.98;;;7.57;;
70953;SDS011;58618;47.490;8.736;2023-04-09T03:47:55;10.70;;;6.00;;
70953;SDS011;58618;47.490;8.736;2023-04-09T03:50:42;13.43;;;7.22;;
70953;SDS011;58618;47.490;8.736;2023-04-09T03:53:29;16.98;;;7.90;;
70953;SDS011;58618;47.490;8.736;2023-04-09T03:56:17;12.30;;;6.95;;
70953;SDS011;58618;47.490;8.736;2023-04-09T03:59:04;13.07;;;6.60;;
70953;SDS011;58618;47.490;8.736;2023-04-09T04:01:53;12.80;;;6.93;;
70953;SDS011;58618;47.490;8.736;2023-04-09T04:04:40;13.40;;;7.20;;
70953;SDS011;58618;47.490;8.736;2023-04-09T04:07:28;14.85;;;7.38;;
70953;SDS011;58618;47.490;8.736;2023-04-09T04:10:15;12.35;;;6.93;;
70953;SDS011;58618;47.490;8.736;2023-04-09T04:13:02;13.45;;;7.28;;
70953;SDS011;58618;47.490;8.736;2023-04-09T04:15:53;12.47;;;6.00;;
70953;SDS011;58618;47.490;8.736;2023-04-09T04:18:41;15.50;;;7.47;;
70953;SDS011;58618;47.490;8.736;2023-04-09T04:21:29;13.65;;;7.30;;
70953;SDS011;58618;47.490;8.736;2023-04-09T04:24:16;16.42;;;7.90;;
70953;SDS011;58618;47.490;8.736;2023-04-09T04:27:04;11.60;;;6.70;;
70953;SDS011;58618;47.490;8.736;2023-04-09T04:29:51;12.00;;;6.27;;
70953;SDS011;58618;47.490;8.736;2023-04-09T04:32:38;11.57;;;6.80;;
70953;SDS011;58618;47.490;8.736;2023-04-09T04:35:27;12.70;;;7.13;;
70953;SDS011;58618;47.490;8.736;2023-04-09T04:38:15;14.85;;;7.00;;
70953;SDS011;58618;47.490;8.736;2023-04-09T04:41:02;12.00;;;7.43;;
70953;SDS011;58618;47.490;8.736;2023-04-09T04:43:49;14.83;;;8.30;;
70953;SDS011;58618;47.490;8.736;2023-04-09T04:46:37;14.48;;;7.65;;
70953;SDS011;58618;47.490;8.736;2023-04-09T04:49:24;12.32;;;7.50;;
70953;SDS011;58618;47.490;8.736;2023-04-09T04:52:13;12.57;;;6.93;;
70953;SDS011;58618;47.490;8.736;2023-04-09T04:55:00;11.77;;;6.95;;
70953;SDS011;58618;47.490;8.736;2023-04-09T04:57:49;11.23;;;7.20;;
70953;SDS011;58618;47.490;8.736;2023-04-09T05:00:37;14.10;;;7.22;;
70953;SDS011;58618;47.490;8.736;2023-04-09T05:03:24;13.80;;;6.93;;
70953;SDS011;58618;47.490;8.736;2023-04-09T05:06:11;14.88;;;7.55;;
70953;SDS011;58618;47.490;8.736;2023-04-09T05:09:00;13.45;;;7.03;;
70953;SDS011;58618;47.490;8.736;2023-04-09T05:11:48;12.00;;;6.90;;
70953;SDS011;58618;47.490;8.736;2023-04-09T05:14:35;17.55;;;7.95;;
70953;SDS011;58618;47.490;8.736;2023-04-09T05:17:23;9.93;;;5.75;;
70953;SDS011;58618;47.490;8.736;2023-04-09T05:20:10;13.80;;;6.95;;
70953;SDS011;58618;47.490;8.736;2023-04-09T05:23:00;12.75;;;6.97;;
70953;SDS011;58618;47.490;8.736;2023-04-09T05:25:48;14.27;;;6.90;;
70953;SDS011;58618;47.490;8.736;2023-04-09T05:28:36;13.27;;;7.28;;
70953;SDS011;58618;47.490;8.736;2023-04-09T05:31:23;12.60;;;6.97;;
70953;SDS011;58618;47.490;8.736;2023-04-09T05:34:11;12.93;;;6.75;;
70953;SDS011;58618;47.490;8.736;2023-04-09T05:36:58;11.52;;;6.63;;
70953;SDS011;58618;47.490;8.736;2023-04-09T05:39:46;17.17;;;6.77;;
70953;SDS011;58618;47.490;8.736;2023-04-09T05:42:35;13.40;;;6.97;;
70953;SDS011;58618;47.490;8.736;2023-04-09T05:45:22;10.27;;;5.97;;
70953;SDS011;58618;47.490;8.736;2023-04-09T05:48:10;14.45;;;7.13;;
70953;SDS011;58618;47.490;8.736;2023-04-09T05:50:57;12.20;;;6.45;;
70953;SDS011;58618;47.490;8.736;2023-04-09T05:53:45;10.90;;;6.20;;
70953;SDS011;58618;47.490;8.736;2023-04-09T05:56:32;11.45;;;5.95;;
70953;SDS011;58618;47.490;8.736;2023-04-09T05:59:21;11.10;;;5.97;;
70953;SDS011;58618;47.490;8.736;2023-04-09T06:02:08;11.77;;;6.22;;
70953;SDS011;58618;47.490;8.736;2023-04-09T06:04:56;14.23;;;6.10;;
70953;SDS011;58618;47.490;8.736;2023-04-09T06:07:43;12.80;;;6.80;;
70953;SDS011;58618;47.490;8.736;2023-04-09T06:10:30;12.88;;;6.40;;
70953;SDS011;58618;47.490;8.736;2023-04-09T06:13:18;12.00;;;6.40;;
70953;SDS011;58618;47.490;8.736;2023-04-09T06:16:08;14.98;;;7.43;;
70953;SDS011;58618;47.490;8.736;2023-04-09T06:18:55;14.82;;;7.80;;
70953;SDS011;58618;47.490;8.736;2023-04-09T06:21:43;15.47;;;7.17;;
70953;SDS011;58618;47.490;8.736;2023-04-09T06:24:30;12.00;;;6.05;;
70953;SDS011;58618;47.490;8.736;2023-04-09T06:27:18;13.90;;;7.18;;
70953;SDS011;58618;47.490;8.736;2023-04-09T06:30:07;14.85;;;7.32;;
70953;SDS011;58618;47.490;8.736;2023-04-09T06:32:57;14.07;;;7.03;;
70953;SDS011;58618;47.490;8.736;2023-04-09T06:35:44;11.43;;;5.97;;
70953;SDS011;58618;47.490;8.736;2023-04-09T06:38:31;11.13;;;6.82;;
70953;SDS011;58618;47.490;8.736;2023-04-09T06:41:19;13.68;;;7.28;;
70953;SDS011;58618;47.490;8.736;2023-04-09T06:44:07;15.43;;;6.80;;
70953;SDS011;58618;47.490;8.736;2023-04-09T06:46:54;11.48;;;6.03;;
70953;SDS011;58618;47.490;8.736;2023-04-09T06:49:43;11.90;;;6.10;;
70953;SDS011;58618;47.490;8.736;2023-04-09T06:52:30;11.90;;;6.57;;
70953;SDS011;58618;47.490;8.736;2023-04-09T06:55:18;15.23;;;8.05;;
70953;SDS011;58618;47.490;8.736;2023-04-09T06:58:05;10.73;;;6.13;;
70953;SDS011;58618;47.490;8.736;2023-04-09T07:00:53;13.27;;;6.75;;
70953;SDS011;58618;47.490;8.736;2023-04-09T07:03:40;11.13;;;5.77;;
70953;SDS011;58618;47.490;8.736;2023-04-09T07:06:29;16.13;;;6.68;;
70953;SDS011;58618;47.490;8.736;2023-04-09T07:09:16;16.15;;;7.53;;
70953;SDS011;58618;47.490;8.736;2023-04-09T07:12:04;14.02;;;6.82;;
70953;SDS011;58618;47.490;8.736;2023-04-09T07:14:51;13.25;;;6.72;;
70953;SDS011;58618;47.490;8.736;2023-04-09T07:17:39;15.17;;;7.00;;
70953;SDS011;58618;47.490;8.736;2023-04-09T07:20:26;16.20;;;7.05;;
70953;SDS011;58618;47.490;8.736;2023-04-09T07:23:14;13.80;;;6.28;;
70953;SDS011;58618;47.490;8.736;2023-04-09T07:26:02;13.18;;;7.25;;
70953;SDS011;58618;47.490;8.736;2023-04-09T07:28:50;12.75;;;5.47;;
70953;SDS011;58618;47.490;8.736;2023-04-09T07:31:37;15.93;;;8.77;;
70953;SDS011;58618;47.490;8.736;2023-04-09T07:34:25;12.73;;;6.50;;
70953;SDS011;58618;47.490;8.736;2023-04-09T07:37:12;11.48;;;5.93;;
70953;SDS011;58618;47.490;8.736;2023-04-09T07:40:01;10.50;;;5.93;;
70953;SDS011;58618;47.490;8.736;2023-04-09T07:42:48;13.77;;;6.40;;
70953;SDS011;58618;47.490;8.736;2023-04-09T07:45:37;12.47;;;6.70;;
70953;SDS011;58618;47.490;8.736;2023-04-09T07:48:25;15.02;;;6.45;;
70953;SDS011;58618;47.490;8.736;2023-04-09T07:51:12;11.02;;;5.88;;
70953;SDS011;58618;47.490;8.736;2023-04-09T07:54:00;11.55;;;5.75;;
70953;SDS011;58618;47.490;8.736;2023-04-09T07:56:48;11.00;;;5.65;;
70953;SDS011;58618;47.490;8.736;2023-04-09T07:59:36;14.30;;;7.50;;
70953;SDS011;58618;47.490;8.736;2023-04-09T08:02:23;12.95;;;5.80;;
70953;SDS011;58618;47.490;8.736;2023-04-09T08:05:11;16.25;;;9.32;;
70953;SDS011;58618;47.490;8.736;2023-04-09T08:08:01;10.18;;;5.82;;
70953;SDS011;58618;47.490;8.736;2023-04-09T08:10:48;15.57;;;7.55;;
70953;SDS011;58618;47.490;8.736;2023-04-09T08:13:38;12.13;;;6.03;;
70953;SDS011;58618;47.490;8.736;2023-04-09T08:16:25;11.23;;;5.85;;
70953;SDS011;58618;47.490;8.736;2023-04-09T08:19:14;12.18;;;6.20;;
70953;SDS011;58618;47.490;8.736;2023-04-09T08:22:05;11.75;;;6.53;;
70953;SDS011;58618;47.490;8.736;2023-04-09T08:24:52;12.13;;;6.85;;
70953;SDS011;58618;47.490;8.736;2023-04-09T08:27:43;9.93;;;6.00;;
70953;SDS011;58618;47.490;8.736;2023-04-09T08:30:34;11.38;;;6.30;;
70953;SDS011;58618;47.490;8.736;2023-04-09T08:33:24;11.02;;;5.85;;
70953;SDS011;58618;47.490;8.736;2023-04-09T08:36:11;13.25;;;6.05;;
70953;SDS011;58618;47.490;8.736;2023-04-09T08:38:59;10.85;;;6.05;;
70953;SDS011;58618;47.490;8.736;2023-04-09T08:41:46;11.23;;;6.40;;
70953;SDS011;58618;47.490;8.736;2023-04-09T08:44:34;11.00;;;6.13;;
70953;SDS011;58618;47.490;8.736;2023-04-09T08:47:23;11.43;;;5.53;;
70953;SDS011;58618;47.490;8.736;2023-04-09T08:50:12;9.80;;;5.50;;
70953;SDS011;58618;47.490;8.736;2023-04-09T08:53:01;10.57;;;5.40;;
70953;SDS011;58618;47.490;8.736;2023-04-09T08:55:49;13.70;;;6.47;;
70953;SDS011;58618;47.490;8.736;2023-04-09T08:58:40;12.45;;;6.20;;
70953;SDS011;58618;47.490;8.736;2023-04-09T09:01:30;12.95;;;6.40;;
70953;SDS011;58618;47.490;8.736;2023-04-09T09:04:19;9.93;;;6.03;;
70953;SDS011;58618;47.490;8.736;2023-04-09T09:07:06;14.35;;;6.18;;
70953;SDS011;58618;47.490;8.736;2023-04-09T09:09:54;13.00;;;5.83;;
70953;SDS011;58618;47.490;8.736;2023-04-09T09:12:43;11.07;;;6.70;;
70953;SDS011;58618;47.490;8.736;2023-04-09T09:15:30;12.20;;;7.03;;
70953;SDS011;58618;47.490;8.736;2023-04-09T09:18:18;14.50;;;6.63;;
70953;SDS011;58618;47.490;8.736;2023-04-09T09:21:10;11.20;;;6.28;;
70953;SDS011;58618;47.490;8.736;2023-04-09T09:24:46;12.37;;;5.93;;
70953;SDS011;58618;47.490;8.736;2023-04-09T09:27:12;11.82;;;6.32;;
70953;SDS011;58618;47.490;8.736;2023-04-09T09:30:19;11.40;;;6.05;;
70953;SDS011;58618;47.490;8.736;2023-04-09T09:33:08;13.52;;;5.93;;
70953;SDS011;58618;47.490;8.736;2023-04-09T09:35:56;13.88;;;7.93;;
70953;SDS011;58618;47.490;8.736;2023-04-09T09:38:51;13.97;;;7.33;;
70953;SDS011;58618;47.490;8.736;2023-04-09T09:41:39;13.90;;;6.40;;
70953;SDS011;58618;47.490;8.736;2023-04-09T09:44:30;13.70;;;7.13;;
70953;SDS011;58618;47.490;8.736;2023-04-09T09:47:19;10.20;;;5.65;;
70953;SDS011;58618;47.490;8.736;2023-04-09T09:50:07;11.98;;;6.18;;
70953;SDS011;58618;47.490;8.736;2023-04-09T09:52:57;14.57;;;8.70;;
70953;SDS011;58618;47.490;8.736;2023-04-09T09:55:50;10.85;;;5.95;;
70953;SDS011;58618;47.490;8.736;2023-04-09T09:58:43;12.15;;;6.28;;
70953;SDS011;58618;47.490;8.736;2023-04-09T10:01:34;12.15;;;6.00;;
70953;SDS011;58618;47.490;8.736;2023-04-09T10:04:22;11.95;;;5.57;;
70953;SDS011;58618;47.490;8.736;2023-04-09T10:07:12;10.93;;;5.87;;
70953;SDS011;58618;47.490;8.736;2023-04-09T10:10:00;11.82;;;6.32;;
70953;SDS011;58618;47.490;8.736;2023-04-09T10:12:50;10.98;;;6.30;;
70953;SDS011;58618;47.490;8.736;2023-04-09T10:15:38;10.75;;;5.78;;
70953;SDS011;58618;47.490;8.736;2023-04-09T10:18:28;10.68;;;6.00;;
70953;SDS011;58618;47.490;8.736;2023-04-09T10:21:22;10.27;;;5.83;;
70953;SDS011;58618;47.490;8.736;2023-04-09T10:24:17;9.00;;;5.13;;
70953;SDS011;58618;47.490;8.736;2023-04-09T10:27:08;11.07;;;6.30;;
70953;SDS011;58618;47.490;8.736;2023-04-09T10:29:57;12.73;;;6.82;;
70953;SDS011;58618;47.490;8.736;2023-04-09T10:32:45;11.65;;;6.60;;
70953;SDS011;58618;47.490;8.736;2023-04-09T10:35:33;11.00;;;6.00;;
70953;SDS011;58618;47.490;8.736;2023-04-09T10:38:33;10.93;;;6.07;;
70953;SDS011;58618;47.490;8.736;2023-04-09T10:41:26;11.50;;;6.50;;
70953;SDS011;58618;47.490;8.736;2023-04-09T10:44:19;10.40;;;5.13;;
70953;SDS011;58618;47.490;8.736;2023-04-09T10:47:08;9.30;;;5.65;;
70953;SDS011;58618;47.490;8.736;2023-04-09T10:49:56;10.50;;;5.53;;
70953;SDS011;58618;47.490;8.736;2023-04-09T10:52:43;11.07;;;6.47;;
70953;SDS011;58618;47.490;8.736;2023-04-09T10:55:33;10.50;;;5.72;;
70953;SDS011;58618;47.490;8.736;2023-04-09T10:58:23;9.45;;;5.07;;
70953;SDS011;58618;47.490;8.736;2023-04-09T11:01:11;10.82;;;6.22;;
70953;SDS011;58618;47.490;8.736;2023-04-09T11:04:11;9.17;;;5.00;;
70953;SDS011;58618;47.490;8.736;2023-04-09T11:07:03;8.80;;;5.07;;
70953;SDS011;58618;47.490;8.736;2023-04-09T11:09:52;10.82;;;5.47;;
70953;SDS011;58618;47.490;8.736;2023-04-09T11:12:39;7.82;;;4.82;;
70953;SDS011;58618;47.490;8.736;2023-04-09T11:15:33;11.55;;;5.32;;
70953;SDS011;58618;47.490;8.736;2023-04-09T11:18:21;8.57;;;4.97;;
70953;SDS011;58618;47.490;8.736;2023-04-09T11:21:11;7.00;;;4.28;;
70953;SDS011;58618;47.490;8.736;2023-04-09T11:23:59;9.27;;;4.43;;
70953;SDS011;58618;47.490;8.736;2023-04-09T11:26:46;7.47;;;4.15;;
70953;SDS011;58618;47.490;8.736;2023-04-09T11:29:35;7.82;;;4.70;;
70953;SDS011;58618;47.490;8.736;2023-04-09T11:32:27;9.57;;;4.37;;
70953;SDS011;58618;47.490;8.736;2023-04-09T11:35:15;7.78;;;4.53;;
70953;SDS011;58618;47.490;8.736;2023-04-09T11:38:08;9.15;;;4.90;;
70953;SDS011;58618;47.490;8.736;2023-04-09T11:40:56;7.80;;;4.38;;
70953;SDS011;58618;47.490;8.736;2023-04-09T11:43:44;7.30;;;4.30;;
70953;SDS011;58618;47.490;8.736;2023-04-09T11:46:31;8.73;;;4.10;;
70953;SDS011;58618;47.490;8.736;2023-04-09T11:49:19;7.93;;;4.35;;
70953;SDS011;58618;47.490;8.736;2023-04-09T11:52:07;8.20;;;4.13;;
70953;SDS011;58618;47.490;8.736;2023-04-09T11:54:59;7.25;;;4.03;;
70953;SDS011;58618;47.490;8.736;2023-04-09T11:57:47;8.82;;;4.80;;
70953;SDS011;58618;47.490;8.736;2023-04-09T12:00:38;6.80;;;3.13;;
70953;SDS011;58618;47.490;8.736;2023-04-09T12:03:26;8.43;;;4.28;;
70953;SDS011;58618;47.490;8.736;2023-04-09T12:06:15;8.82;;;4.55;;
70953;SDS011;58618;47.490;8.736;2023-04-09T12:09:07;6.63;;;3.85;;
70953;SDS011;58618;47.490;8.736;2023-04-09T12:11:59;6.15;;;3.53;;
70953;SDS011;58618;47.490;8.736;2023-04-09T12:14:47;6.80;;;3.23;;
70953;SDS011;58618;47.490;8.736;2023-04-09T12:17:36;6.97;;;3.33;;
70953;SDS011;58618;47.490;8.736;2023-04-09T12:20:27;6.13;;;3.50;;
70953;SDS011;58618;47.490;8.736;2023-04-09T12:23:19;6.28;;;3.13;;
70953;SDS011;58618;47.490;8.736;2023-04-09T12:26:09;5.55;;;3.15;;
70953;SDS011;58618;47.490;8.736;2023-04-09T12:29:04;7.20;;;4.10;;
70953;SDS011;58618;47.490;8.736;2023-04-09T12:31:52;6.05;;;4.05;;
70953;SDS011;58618;47.490;8.736;2023-04-09T12:34:39;7.32;;;4.55;;
70953;SDS011;58618;47.490;8.736;2023-04-09T12:37:28;7.43;;;4.07;;
70953;SDS011;58618;47.490;8.736;2023-04-09T12:40:15;7.40;;;3.70;;
70953;SDS011;58618;47.490;8.736;2023-04-09T12:43:04;5.67;;;3.27;;
70953;SDS011;58618;47.490;8.736;2023-04-09T12:45:53;6.70;;;3.20;;
70953;SDS011;58618;47.490;8.736;2023-04-09T12:48:42;6.57;;;3.97;;
70953;SDS011;58618;47.490;8.736;2023-04-09T12:51:30;5.43;;;3.35;;
70953;SDS011;58618;47.490;8.736;2023-04-09T12:54:18;4.50;;;2.92;;
70953;SDS011;58618;47.490;8.736;2023-04-09T12:57:06;5.03;;;3.03;;
70953;SDS011;58618;47.490;8.736;2023-04-09T12:59:53;5.25;;;2.83;;
70953;SDS011;58618;47.490;8.736;2023-04-09T13:02:42;3.17;;;2.10;;
70953;SDS011;58618;47.490;8.736;2023-04-09T13:05:30;4.50;;;2.50;;
70953;SDS011;58618;47.490;8.736;2023-04-09T13:08:20;4.10;;;2.50;;
70953;SDS011;58618;47.490;8.736;2023-04-09T13:11:07;4.87;;;2.90;;
70953;SDS011;58618;47.490;8.736;2023-04-09T13:13:55;7.35;;;3.25;;
70953;SDS011;58618;47.490;8.736;2023-04-09T13:16:43;5.40;;;3.20;;
70953;SDS011;58618;47.490;8.736;2023-04-09T13:19:34;5.45;;;3.35;;
70953;SDS011;58618;47.490;8.736;2023-04-09T13:22:22;5.20;;;3.25;;
70953;SDS011;58618;47.490;8.736;2023-04-09T13:25:09;4.27;;;2.53;;
70953;SDS011;58618;47.490;8.736;2023-04-09T13:27:58;3.95;;;2.42;;
70953;SDS011;58618;47.490;8.736;2023-04-09T13:30:46;4.97;;;2.92;;
70953;SDS011;58618;47.490;8.736;2023-04-09T13:33:34;3.92;;;2.75;;
70953;SDS011;58618;47.490;8.736;2023-04-09T13:36:23;4.22;;;2.53;;
70953;SDS011;58618;47.490;8.736;2023-04-09T13:39:12;3.70;;;2.27;;
70953;SDS011;58618;47.490;8.736;2023-04-09T13:42:00;4.32;;;2.70;;
70953;SDS011;58618;47.490;8.736;2023-04-09T13:44:49;4.40;;;2.50;;
70953;SDS011;58618;47.490;8.736;2023-04-09T13:47:36;4.30;;;2.50;;
70953;SDS011;58618;47.490;8.736;2023-04-09T13:50:24;3.83;;;2.38;;
70953;SDS011;58618;47.490;8.736;2023-04-09T13:53:13;5.40;;;2.60;;
70953;SDS011;58618;47.490;8.736;2023-04-09T13:56:01;3.95;;;2.13;;
70953;SDS011;58618;47.490;8.736;2023-04-09T13:58:48;3.08;;;2.00;;
70953;SDS011;58618;47.490;8.736;2023-04-09T14:01:36;3.25;;;2.10;;
70953;SDS011;58618;47.490;8.736;2023-04-09T14:04:24;3.25;;;2.17;;
70953;SDS011;58618;47.490;8.736;2023-04-09T14:07:12;3.77;;;2.37;;
70953;SDS011;58618;47.490;8.736;2023-04-09T14:10:04;4.07;;;2.20;;
70953;SDS011;58618;47.490;8.736;2023-04-09T14:12:53;3.88;;;2.38;;
70953;SDS011;58618;47.490;8.736;2023-04-09T14:15:43;3.63;;;2.28;;
70953;SDS011;58618;47.490;8.736;2023-04-09T14:18:31;3.67;;;2.30;;
70953;SDS011;58618;47.490;8.736;2023-04-09T14:21:25;2.97;;;2.00;;
70953;SDS011;58618;47.490;8.736;2023-04-09T14:24:15;3.03;;;1.98;;
70953;SDS011;58618;47.490;8.736;2023-04-09T14:27:11;4.47;;;2.33;;
70953;SDS011;58618;47.490;8.736;2023-04-09T14:29:58;4.57;;;2.40;;
70953;SDS011;58618;47.490;8.736;2023-04-09T14:32:45;4.18;;;2.35;;
70953;SDS011;58618;47.490;8.736;2023-04-09T14:35:33;3.40;;;2.00;;
70953;SDS011;58618;47.490;8.736;2023-04-09T14:38:21;3.92;;;2.55;;
70953;SDS011;58618;47.490;8.736;2023-04-09T14:41:10;4.00;;;2.15;;
70953;SDS011;58618;47.490;8.736;2023-04-09T14:44:00;3.10;;;1.77;;
70953;SDS011;58618;47.490;8.736;2023-04-09T14:46:48;3.67;;;2.00;;
70953;SDS011;58618;47.490;8.736;2023-04-09T14:49:37;3.20;;;2.00;;
70953;SDS011;58618;47.490;8.736;2023-04-09T14:52:24;4.13;;;2.20;;
70953;SDS011;58618;47.490;8.736;2023-04-09T14:55:13;3.60;;;2.08;;
70953;SDS011;58618;47.490;8.736;2023-04-09T14:58:01;2.80;;;1.90;;
70953;SDS011;58618;47.490;8.736;2023-04-09T15:00:50;3.47;;;2.03;;
70953;SDS011;58618;47.490;8.736;2023-04-09T15:03:38;3.43;;;2.10;;
70953;SDS011;58618;47.490;8.736;2023-04-09T15:06:27;3.50;;;1.98;;
70953;SDS011;58618;47.490;8.736;2023-04-09T15:09:20;3.00;;;1.80;;
70953;SDS011;58618;47.490;8.736;2023-04-09T15:12:07;3.40;;;2.00;;
70953;SDS011;58618;47.490;8.736;2023-04-09T15:14:55;3.78;;;2.42;;
70953;SDS011;58618;47.490;8.736;2023-04-09T15:17:44;3.43;;;2.20;;
70953;SDS011;58618;47.490;8.736;2023-04-09T15:20:36;2.92;;;1.75;;
70953;SDS011;58618;47.490;8.736;2023-04-09T15:23:24;2.90;;;1.58;;
70953;SDS011;58618;47.490;8.736;2023-04-09T15:26:11;3.78;;;2.25;;
70953;SDS011;58618;47.490;8.736;2023-04-09T15:28:59;3.83;;;2.55;;
70953;SDS011;58618;47.490;8.736;2023-04-09T15:31:49;4.03;;;2.33;;
70953;SDS011;58618;47.490;8.736;2023-04-09T15:34:40;2.05;;;1.55;;
70953;SDS011;58618;47.490;8.736;2023-04-09T15:37:27;4.10;;;1.85;;
70953;SDS011;58618;47.490;8.736;2023-04-09T15:40:14;2.50;;;1.67;;
70953;SDS011;58618;47.490;8.736;2023-04-09T15:43:02;2.08;;;1.38;;
70953;SDS011;58618;47.490;8.736;2023-04-09T15:45:50;4.13;;;1.73;;
70953;SDS011;58618;47.490;8.736;2023-04-09T15:48:37;2.72;;;1.80;;
70953;SDS011;58618;47.490;8.736;2023-04-09T15:51:26;2.58;;;1.50;;
70953;SDS011;58618;47.490;8.736;2023-04-09T15:54:13;2.28;;;1.40;;
70953;SDS011;58618;47.490;8.736;2023-04-09T15:57:01;2.33;;;1.60;;
70953;SDS011;58618;47.490;8.736;2023-04-09T15:59:49;2.30;;;1.47;;
70953;SDS011;58618;47.490;8.736;2023-04-09T16:02:36;2.83;;;1.95;;
70953;SDS011;58618;47.490;8.736;2023-04-09T16:05:25;2.33;;;1.60;;
70953;SDS011;58618;47.490;8.736;2023-04-09T16:08:15;2.90;;;1.50;;
70953;SDS011;58618;47.490;8.736;2023-04-09T16:11:03;2.35;;;1.60;;
70953;SDS011;58618;47.490;8.736;2023-04-09T16:13:51;2.80;;;1.40;;
70953;SDS011;58618;47.490;8.736;2023-04-09T16:16:40;2.25;;;1.60;;
70953;SDS011;58618;47.490;8.736;2023-04-09T16:19:31;2.67;;;1.70;;
70953;SDS011;58618;47.490;8.736;2023-04-09T16:22:19;2.63;;;1.60;;
70953;SDS011;58618;47.490;8.736;2023-04-09T16:25:08;2.88;;;1.90;;
70953;SDS011;58618;47.490;8.736;2023-04-09T16:27:56;2.80;;;1.90;;
70953;SDS011;58618;47.490;8.736;2023-04-09T16:30:43;2.30;;;1.40;;
70953;SDS011;58618;47.490;8.736;2023-04-09T16:33:31;3.58;;;1.77;;
70953;SDS011;58618;47.490;8.736;2023-04-09T16:36:18;2.75;;;1.85;;
70953;SDS011;58618;47.490;8.736;2023-04-09T16:39:06;2.65;;;1.80;;
70953;SDS011;58618;47.490;8.736;2023-04-09T16:41:55;2.23;;;1.47;;
70953;SDS011;58618;47.490;8.736;2023-04-09T16:44:43;2.40;;;1.40;;